createdAt,value
2023-04-26T00:01:32.855Z,98285.75
2023-04-26T00:04:00.817Z,98277.63
2023-04-26T00:06:28.113Z,98281.06
2023-04-26T00:08:55.686Z,98275.09
2023-04-26T00:11:23.049Z,98299.31
2023-04-26T00:13:50.011Z,98289.22
2023-04-26T00:16:18.579Z,98284.53
2023-04-26T00:18:46.433Z,98287.16
2023-04-26T00:21:13.424Z,98282.00
2023-04-26T00:23:40.864Z,98274.22
2023-04-26T00:26:08.057Z,98277.31
2023-04-26T00:28:35.083Z,98273.19
2023-04-26T00:31:01.942Z,98272.50
2023-04-26T00:33:28.975Z,98269.31
2023-04-26T00:35:56.715Z,98270.34
2023-04-26T00:38:23.513Z,98264.47
2023-04-26T00:40:51.467Z,98251.16
2023-04-26T00:43:18.641Z,98258.38
2023-04-26T00:45:46.208Z,98257.56
2023-04-26T00:48:13.263Z,98254.81
2023-04-26T00:50:40.393Z,98256.09
2023-04-26T00:53:09.041Z,98262.16
2023-04-26T00:55:36.878Z,98248.88
2023-04-26T00:58:03.994Z,98253.44
2023-04-26T01:00:30.835Z,98250.16
2023-04-26T01:02:57.982Z,98248.44
2023-04-26T01:05:25.241Z,98235.59
2023-04-26T01:07:52.458Z,98248.66
2023-04-26T01:10:19.368Z,98253.69
2023-04-26T01:12:46.874Z,98248.19
2023-04-26T01:15:18.510Z,98248.66
2023-04-26T01:17:48.371Z,98253.25
2023-04-26T01:20:15.639Z,98246.25
2023-04-26T01:22:42.757Z,98262.06
2023-04-26T01:25:12.332Z,98261.25
2023-04-26T01:27:40.028Z,98255.75
2023-04-26T01:30:08.544Z,98257.25
2023-04-26T01:32:36.106Z,98254.84
2023-04-26T01:35:04.114Z,98235.56
2023-04-26T01:37:31.272Z,98236.59
2023-04-26T01:40:00.213Z,98245.31
2023-04-26T01:42:27.291Z,98241.88
2023-04-26T01:44:54.442Z,98234.63
2023-04-26T01:47:22.298Z,98217.88
2023-04-26T01:49:49.264Z,98234.88
2023-04-26T01:52:16.931Z,98232.13
2023-04-26T01:54:45.929Z,98233.16
2023-04-26T01:57:12.919Z,98229.84
2023-04-26T01:59:39.858Z,98223.75
2023-04-26T02:02:07.113Z,98217.91
2023-04-26T02:04:37.902Z,98226.41
2023-04-26T02:07:04.838Z,98225.94
2023-04-26T02:09:31.601Z,98220.66
2023-04-26T02:11:58.598Z,98221.81
2023-04-26T02:14:26.799Z,98222.84
2023-04-26T02:16:53.965Z,98226.84
2023-04-26T02:19:21.142Z,98216.75
2023-04-26T02:21:52.984Z,98219.03
2023-04-26T02:24:20.124Z,98221.09
2023-04-26T02:26:47.229Z,98218.56
2023-04-26T02:29:14.331Z,98212.94
2023-04-26T02:31:41.568Z,98215.38
2023-04-26T02:34:08.688Z,98228.09
2023-04-26T02:36:36.050Z,98220.66
2023-04-26T02:39:03.542Z,98224.19
2023-04-26T02:41:33.335Z,98226.94
2023-04-26T02:44:01.361Z,98224.06
2023-04-26T02:46:28.529Z,98221.31
2023-04-26T02:48:55.627Z,98218.78
2023-04-26T02:51:23.193Z,98228.91
2023-04-26T02:53:50.127Z,98227.41
2023-04-26T02:56:19.579Z,98228.91
2023-04-26T02:58:46.687Z,98226.81
2023-04-26T03:01:15.107Z,98228.91
2023-04-26T03:03:42.700Z,98222.72
2023-04-26T03:06:10.208Z,98222.03
2023-04-26T03:08:37.127Z,98227.78
2023-04-26T03:11:04.285Z,98219.28
2023-04-26T03:13:31.370Z,98229.38
2023-04-26T03:15:58.932Z,98228.69
2023-04-26T03:18:25.947Z,98236.03
2023-04-26T03:20:53.341Z,98234.91
2023-04-26T03:23:24.407Z,98226.41
2023-04-26T03:25:52.359Z,98223.31
2023-04-26T03:28:19.444Z,98217.22
2023-04-26T03:30:46.864Z,98224.00
2023-04-26T03:33:14.700Z,98222.97
2023-04-26T03:35:41.710Z,98231.34
2023-04-26T03:38:08.932Z,98215.75
2023-04-26T03:40:36.183Z,98230.03
2023-04-26T03:43:03.514Z,98234.50
2023-04-26T03:45:30.646Z,98235.78
2023-04-26T03:47:57.868Z,98232.56
2023-04-26T03:50:24.961Z,98241.63
2023-04-26T03:52:52.151Z,98251.81
2023-04-26T03:55:19.133Z,98247.22
2023-04-26T03:57:46.401Z,98253.59
2023-04-26T04:00:14.483Z,98257.06
2023-04-26T04:02:44.826Z,98262.34
2023-04-26T04:05:19.544Z,98255.66
2023-04-26T04:07:47.138Z,98259.75
2023-04-26T04:10:14.192Z,98270.78
2023-04-26T04:12:41.944Z,98266.75
2023-04-26T04:15:10.237Z,98281.09
2023-04-26T04:17:40.482Z,98279.72
2023-04-26T04:20:08.091Z,98282.00
2023-04-26T04:22:35.062Z,98285.22
2023-04-26T04:25:03.661Z,98289.59
2023-04-26T04:27:32.185Z,98290.03
2023-04-26T04:29:59.316Z,98284.06
2023-04-26T04:32:28.277Z,98301.28
2023-04-26T04:34:55.288Z,98298.16
2023-04-26T04:37:23.075Z,98291.16
2023-04-26T04:39:49.861Z,98292.41
2023-04-26T04:42:17.213Z,98290.25
2023-04-26T04:44:45.910Z,98292.97
2023-04-26T04:47:12.788Z,98298.47
2023-04-26T04:49:39.882Z,98308.81
2023-04-26T04:52:07.401Z,98307.41
2023-04-26T04:54:34.841Z,98314.63
2023-04-26T04:57:03.169Z,98314.72
2023-04-26T04:59:31.661Z,98308.31
2023-04-26T05:01:58.775Z,98313.13
2023-04-26T05:04:26.113Z,98311.28
2023-04-26T05:06:53.730Z,98319.84
2023-04-26T05:09:22.849Z,98309.34
2023-04-26T05:11:49.659Z,98312.72
2023-04-26T05:14:16.541Z,98309.09
2023-04-26T05:16:43.653Z,98303.41
2023-04-26T05:19:11.422Z,98296.91
2023-04-26T05:21:38.176Z,98309.75
2023-04-26T05:24:06.656Z,98307.97
2023-04-26T05:26:35.859Z,98305.88
2023-04-26T05:29:41.778Z,98303.72
2023-04-26T05:32:22.296Z,98297.53
2023-04-26T05:34:56.088Z,98299.31
2023-04-26T05:37:23.094Z,98291.09
2023-04-26T05:39:50.168Z,98293.06
2023-04-26T05:42:18.007Z,98302.59
2023-04-26T05:44:45.808Z,98308.22
2023-04-26T05:47:12.832Z,98295.47
2023-04-26T05:49:39.629Z,98305.00
2023-04-26T05:52:06.866Z,98306.59
2023-04-26T05:54:34.225Z,98302.50
2023-04-26T05:57:02.396Z,98316.47
2023-04-26T05:59:32.973Z,98307.28
2023-04-26T06:02:01.621Z,98297.56
2023-04-26T06:04:29.111Z,98292.91
2023-04-26T06:07:07.334Z,98296.38
2023-04-26T06:09:34.403Z,98279.19
2023-04-26T06:12:02.304Z,98290.69
2023-04-26T06:14:30.946Z,98300.06
2023-04-26T06:17:03.668Z,98290.56
2023-04-26T06:19:31.326Z,98285.66
2023-04-26T06:21:58.621Z,98278.19
2023-04-26T06:24:26.179Z,98286.56
2023-04-26T06:26:53.514Z,98280.50
2023-04-26T06:29:21.850Z,98272.19
2023-04-26T06:31:48.923Z,98277.25
2023-04-26T06:34:17.847Z,98278.41
2023-04-26T06:36:44.819Z,98284.06
2023-04-26T06:39:11.857Z,98281.72
2023-04-26T06:41:39.837Z,98292.13
2023-04-26T06:44:09.923Z,98266.34
2023-04-26T06:46:41.858Z,98285.59
2023-04-26T06:49:09.700Z,98288.84
2023-04-26T06:51:36.993Z,98288.69
2023-04-26T06:54:05.421Z,98290.09
2023-04-26T06:56:32.596Z,98295.75
2023-04-26T06:59:04.328Z,98302.59
2023-04-26T07:01:34.025Z,98308.69
2023-04-26T07:04:03.908Z,98301.34
2023-04-26T07:06:31.722Z,98304.81
2023-04-26T07:09:01.207Z,98309.50
2023-04-26T07:11:28.603Z,98302.28
2023-04-26T07:13:55.862Z,98305.28
2023-04-26T07:16:23.522Z,98306.31
2023-04-26T07:18:51.547Z,98310.22
2023-04-26T07:21:18.858Z,98315.41
2023-04-26T07:23:46.093Z,98317.28
2023-04-26T07:26:13.384Z,98313.72
2023-04-26T07:28:40.379Z,98307.03
2023-04-26T07:31:09.641Z,98308.28
2023-04-26T07:33:39.151Z,98306.50
2023-04-26T07:36:06.332Z,98311.22
2023-04-26T07:38:33.260Z,98312.34
2023-04-26T07:41:01.433Z,98301.03
2023-04-26T07:43:30.359Z,98317.22
2023-04-26T07:46:03.514Z,98325.50
2023-04-26T07:48:30.681Z,98311.03
2023-04-26T07:50:57.602Z,98303.53
2023-04-26T07:53:24.570Z,98313.38
2023-04-26T07:55:51.827Z,98313.06
2023-04-26T07:58:19.643Z,98310.19
2023-04-26T08:00:46.615Z,98334.16
2023-04-26T08:03:18.132Z,98321.56
2023-04-26T08:05:45.791Z,98324.63
2023-04-26T08:08:12.967Z,98326.25
2023-04-26T08:10:42.923Z,98328.59
2023-04-26T08:13:09.737Z,98323.53
2023-04-26T08:15:37.110Z,98319.34
2023-04-26T08:18:04.713Z,98323.00
2023-04-26T08:20:32.812Z,98315.16
2023-04-26T08:23:00.237Z,98308.69
2023-04-26T08:25:27.404Z,98308.66
2023-04-26T08:27:54.451Z,98315.13
2023-04-26T08:30:22.886Z,98304.78
2023-04-26T08:32:49.844Z,98311.19
2023-04-26T08:35:17.122Z,98323.22
2023-04-26T08:37:44.536Z,98312.91
2023-04-26T08:40:11.729Z,98313.03
2023-04-26T08:42:44.252Z,98330.97
2023-04-26T08:45:11.961Z,98316.25
2023-04-26T08:47:47.510Z,98311.91
2023-04-26T08:50:16.290Z,98320.06
2023-04-26T08:52:44.457Z,98316.00
2023-04-26T08:55:17.395Z,98310.81
2023-04-26T08:57:48.721Z,98309.28
2023-04-26T09:00:17.195Z,98311.34
2023-04-26T09:02:51.919Z,98316.00
2023-04-26T09:05:26.759Z,98304.63
2023-04-26T09:08:00.864Z,98301.66
2023-04-26T09:10:37.043Z,98304.28
2023-04-26T09:13:06.824Z,98293.53
2023-04-26T09:15:34.389Z,98301.84
2023-04-26T09:18:21.388Z,98312.44
2023-04-26T09:21:09.583Z,98317.22
2023-04-26T09:23:37.244Z,98310.31
2023-04-26T09:26:20.961Z,98305.63
2023-04-26T09:28:48.708Z,98315.25
2023-04-26T09:31:40.095Z,98292.69
2023-04-26T09:34:10.843Z,98307.66
2023-04-26T09:36:47.414Z,98315.56
2023-04-26T09:39:14.847Z,98300.56
2023-04-26T09:41:45.846Z,98301.25
2023-04-26T09:44:23.464Z,98306.03
2023-04-26T09:47:03.014Z,98296.09
2023-04-26T09:49:52.544Z,98303.56
2023-04-26T09:52:20.419Z,98294.09
2023-04-26T09:54:52.157Z,98253.94
2023-04-26T09:57:22.196Z,98301.28
2023-04-26T09:59:55.762Z,98295.53
2023-04-26T10:02:32.752Z,98274.56
2023-04-26T10:05:01.027Z,98273.94
2023-04-26T10:07:30.662Z,98279.69
2023-04-26T10:09:58.709Z,98275.72
2023-04-26T10:12:25.573Z,98278.09
2023-04-26T10:14:52.665Z,98269.34
2023-04-26T10:17:21.080Z,98268.56
2023-04-26T10:19:52.642Z,98263.41
2023-04-26T10:22:26.203Z,98270.88
2023-04-26T10:24:55.065Z,98254.75
2023-04-26T10:27:43.829Z,98267.47
2023-04-26T10:30:12.384Z,98263.25
2023-04-26T10:32:57.957Z,98260.59
2023-04-26T10:35:27.003Z,98258.56
2023-04-26T10:37:59.921Z,98259.75
2023-04-26T10:40:41.241Z,98260.25
2023-04-26T10:43:14.821Z,98259.63
2023-04-26T10:45:42.777Z,98264.78
2023-04-26T10:48:28.734Z,98263.56
2023-04-26T10:51:05.652Z,98262.72
2023-04-26T10:53:53.898Z,98269.19
2023-04-26T10:56:24.073Z,98272.81
2023-04-26T11:01:41.662Z,98267.34
2023-04-26T11:04:13.058Z,98259.00
2023-04-26T11:06:54.093Z,98276.09
2023-04-26T11:09:40.968Z,98279.19
2023-04-26T11:12:15.923Z,98263.72
2023-04-26T11:14:43.526Z,98264.00
2023-04-26T11:17:10.696Z,98269.13
2023-04-26T11:19:37.932Z,98264.00
2023-04-26T11:22:07.712Z,98262.06
2023-04-26T11:24:41.818Z,98249.72
2023-04-26T11:27:10.008Z,98260.91
2023-04-26T11:29:37.466Z,98264.13
2023-04-26T11:32:04.708Z,98269.63
2023-04-26T11:34:35.914Z,98269.16
2023-04-26T11:37:04.717Z,98254.47
2023-04-26T11:39:35.831Z,98264.13
2023-04-26T11:42:09.651Z,98251.78
2023-04-26T11:44:37.851Z,98262.03
2023-04-26T11:47:06.648Z,98262.44
2023-04-26T11:49:36.536Z,98268.13
2023-04-26T11:52:05.111Z,98253.06
2023-04-26T11:54:37.961Z,98261.03
2023-04-26T11:57:17.271Z,98261.41
2023-04-26T11:59:46.201Z,98261.41
2023-04-26T12:02:13.257Z,98266.97
2023-04-26T12:04:41.431Z,98271.38
2023-04-26T12:07:08.723Z,98268.97
2023-04-26T12:09:40.363Z,98260.22
2023-04-26T12:12:07.608Z,98257.41
2023-04-26T12:14:39.142Z,98257.03
2023-04-26T12:17:07.735Z,98266.19
2023-04-26T12:19:36.773Z,98257.78
2023-04-26T12:22:05.206Z,98260.94
2023-04-26T12:24:39.329Z,98254.59
2023-04-26T12:27:07.472Z,98255.41
2023-04-26T12:29:35.466Z,98259.44
2023-04-26T12:32:03.169Z,98228.34
2023-04-26T12:34:31.019Z,98248.25
2023-04-26T12:36:58.263Z,98249.06
2023-04-26T12:39:25.433Z,98253.06
2023-04-26T12:41:52.740Z,98245.09
2023-04-26T12:44:21.953Z,98250.66
2023-04-26T12:46:49.953Z,98243.50
2023-04-26T12:49:17.067Z,98238.69
2023-04-26T12:51:44.335Z,98237.09
2023-04-26T12:54:11.244Z,98243.00
2023-04-26T12:56:43.696Z,98236.63
2023-04-26T12:59:11.124Z,98241.03
2023-04-26T13:01:38.515Z,98241.47
2023-04-26T13:04:06.483Z,98251.41
2023-04-26T13:06:34.216Z,98246.25
2023-04-26T13:09:01.691Z,98243.03
2023-04-26T13:11:28.626Z,98245.41
2023-04-26T13:13:55.639Z,98248.97
2023-04-26T13:16:22.922Z,98252.13
2023-04-26T13:19:10.942Z,98256.13
2023-04-26T13:21:38.459Z,98238.63
2023-04-26T13:24:06.117Z,98244.59
2023-04-26T13:26:33.083Z,98264.03
2023-04-26T13:29:00.063Z,98264.28
2023-04-26T13:31:27.407Z,98260.78
2023-04-26T13:33:54.772Z,98257.66
2023-04-26T13:36:21.868Z,98256.91
2023-04-26T13:38:48.874Z,98263.28
2023-04-26T13:41:16.237Z,98248.22
2023-04-26T13:43:43.374Z,98251.34
2023-04-26T13:46:10.590Z,98260.56
2023-04-26T13:48:37.831Z,98260.13
2023-04-26T13:51:07.289Z,98251.31
2023-04-26T13:53:34.957Z,98261.66
2023-04-26T13:56:02.011Z,98251.69
2023-04-26T13:58:28.910Z,98254.94
2023-04-26T14:00:56.838Z,98265.22
2023-04-26T14:03:23.953Z,98260.06
2023-04-26T14:05:51.309Z,98258.03
2023-04-26T14:08:18.501Z,98263.66
2023-04-26T14:10:45.943Z,98273.25
2023-04-26T14:13:12.872Z,98268.44
2023-04-26T14:15:39.815Z,98275.19
2023-04-26T14:18:06.897Z,98269.63
2023-04-26T14:20:36.960Z,98279.16
2023-04-26T14:23:04.289Z,98267.91
2023-04-26T14:25:31.192Z,98275.94
2023-04-26T14:27:58.204Z,98273.56
2023-04-26T14:30:25.808Z,98279.09
2023-04-26T14:32:52.805Z,98277.91
2023-04-26T14:35:19.766Z,98267.09
2023-04-26T14:37:46.706Z,98273.16
2023-04-26T14:40:17.008Z,98270.47
2023-04-26T14:42:46.283Z,98272.06
2023-04-26T14:45:13.501Z,98288.75
2023-04-26T14:47:41.212Z,98273.63
2023-04-26T14:50:09.730Z,98289.53
2023-04-26T14:52:37.404Z,98279.13
2023-04-26T14:55:05.368Z,98288.28
2023-04-26T14:57:33.024Z,98279.53
2023-04-26T15:00:06.888Z,98285.03
2023-04-26T15:02:34.360Z,98279.78
2023-04-26T15:05:04.130Z,98269.50
2023-04-26T15:07:34.581Z,98277.91
2023-04-26T15:10:01.937Z,98277.88
2023-04-26T15:12:29.079Z,98279.84
2023-04-26T15:14:56.291Z,98284.31
2023-04-26T15:17:23.392Z,98273.19
2023-04-26T15:19:50.643Z,98277.59
2023-04-26T15:22:17.940Z,98286.38
2023-04-26T15:24:45.155Z,98285.59
2023-04-26T15:27:12.765Z,98291.59
2023-04-26T15:29:42.719Z,98283.16
2023-04-26T15:32:09.808Z,98288.00
2023-04-26T15:34:43.347Z,98282.09
2023-04-26T15:37:10.715Z,98280.13
2023-04-26T15:39:38.524Z,98289.66
2023-04-26T15:42:06.099Z,98298.38
2023-04-26T15:44:33.384Z,98287.97
2023-04-26T15:47:03.767Z,98279.19
2023-04-26T15:49:31.225Z,98291.94
2023-04-26T15:52:02.365Z,98298.22
2023-04-26T15:54:30.291Z,98292.53
2023-04-26T15:56:57.131Z,98298.13
2023-04-26T15:59:23.999Z,98309.19
2023-04-26T16:01:51.196Z,98304.47
2023-04-26T16:04:18.673Z,98310.72
2023-04-26T16:06:45.571Z,98312.06
2023-04-26T16:09:24.961Z,98322.38
2023-04-26T16:11:53.102Z,98321.25
2023-04-26T16:14:20.201Z,98325.81
2023-04-26T16:16:47.169Z,98331.91
2023-04-26T16:19:14.159Z,98334.16
2023-04-26T16:21:41.274Z,98340.47
2023-04-26T16:24:11.832Z,98338.03
2023-04-26T16:26:38.818Z,98340.47
2023-04-26T16:29:06.116Z,98333.97
2023-04-26T16:31:33.346Z,98353.25
2023-04-26T16:34:00.825Z,98354.03
2023-04-26T16:36:27.911Z,98370.63
2023-04-26T16:38:55.197Z,98378.81
2023-04-26T16:41:23.344Z,98391.44
2023-04-26T16:43:52.767Z,98387.53
2023-04-26T16:46:21.111Z,98388.00
2023-04-26T16:48:48.098Z,98381.16
2023-04-26T16:51:15.160Z,98386.72
2023-04-26T16:53:42.600Z,98378.59
2023-04-26T16:56:09.753Z,98395.59
2023-04-26T16:58:37.092Z,98399.38
2023-04-26T17:01:04.787Z,98401.28
2023-04-26T17:03:32.044Z,98402.88
2023-04-26T17:06:00.186Z,98402.81
2023-04-26T17:08:27.437Z,98417.53
2023-04-26T17:10:54.545Z,98411.22
2023-04-26T17:13:21.937Z,98414.19
2023-04-26T17:16:01.948Z,98421.59
2023-04-26T17:18:28.885Z,98425.59
2023-04-26T17:20:56.467Z,98441.94
2023-04-26T17:23:24.495Z,98442.13
2023-04-26T17:25:53.252Z,98430.00
2023-04-26T17:28:21.330Z,98442.41
2023-04-26T17:30:48.273Z,98457.03
2023-04-26T17:33:15.113Z,98459.16
2023-04-26T17:35:42.044Z,98460.59
2023-04-26T17:38:09.018Z,98450.97
2023-04-26T17:40:36.094Z,98454.84
2023-04-26T17:43:02.963Z,98461.31
2023-04-26T17:45:29.885Z,98466.41
2023-04-26T17:47:57.012Z,98458.78
2023-04-26T17:50:24.092Z,98474.28
2023-04-26T17:52:51.019Z,98474.63
2023-04-26T17:55:18.124Z,98486.22
2023-04-26T17:57:44.993Z,98456.66
2023-04-26T18:00:12.757Z,98477.47
2023-04-26T18:02:42.226Z,98484.53
2023-04-26T18:05:10.092Z,98489.56
2023-04-26T18:07:37.038Z,98495.91
2023-04-26T18:10:04.416Z,98501.16
2023-04-26T18:12:32.043Z,98497.03
2023-04-26T18:15:00.054Z,98496.94
2023-04-26T18:17:27.107Z,98502.88
2023-04-26T18:19:54.238Z,98496.00
2023-04-26T18:22:21.206Z,98509.13
2023-04-26T18:24:48.122Z,98501.69
2023-04-26T18:27:15.607Z,98513.53
2023-04-26T18:29:42.609Z,98519.56
2023-04-26T18:32:09.570Z,98522.81
2023-04-26T18:34:36.496Z,98531.44
2023-04-26T18:37:03.564Z,98550.28
2023-04-26T18:39:30.711Z,98541.59
2023-04-26T18:41:58.325Z,98541.69
2023-04-26T18:44:43.692Z,98546.28
2023-04-26T18:47:10.679Z,98540.00
2023-04-26T18:49:38.136Z,98554.94
2023-04-26T18:52:08.696Z,98534.50
2023-04-26T18:54:39.228Z,98543.00
2023-04-26T18:57:06.123Z,98568.41
2023-04-26T18:59:32.887Z,98551.72
2023-04-26T19:02:01.672Z,98553.44
2023-04-26T19:04:28.953Z,98560.75
2023-04-26T19:07:14.527Z,98561.31
2023-04-26T19:09:52.942Z,98587.06
2023-04-26T19:12:21.189Z,98583.06
2023-04-26T19:15:25.814Z,98580.56
2023-04-26T19:17:53.000Z,98585.94
2023-04-26T19:23:10.986Z,98607.38
2023-04-26T19:25:38.376Z,98601.41
2023-04-26T19:28:05.863Z,98603.41
2023-04-26T19:30:32.790Z,98624.91
2023-04-26T19:32:59.772Z,98635.00
2023-04-26T19:35:26.785Z,98629.16
2023-04-26T19:37:53.737Z,98632.09
2023-04-26T19:40:20.758Z,98647.75
2023-04-26T19:42:48.003Z,98644.72
2023-04-26T19:45:14.865Z,98646.47
2023-04-26T19:47:42.783Z,98647.47
2023-04-26T19:50:10.111Z,98652.06
2023-04-26T19:52:37.065Z,98671.34
2023-04-26T19:55:05.456Z,98675.03
2023-04-26T19:57:44.985Z,98678.13
2023-04-26T20:00:40.711Z,98688.06
2023-04-26T20:06:20.539Z,98683.53
2023-04-26T20:08:48.083Z,98686.81
2023-04-26T20:11:16.914Z,98704.81
2023-04-26T20:13:45.071Z,98693.66
2023-04-26T20:16:12.642Z,98694.78
2023-04-26T20:18:39.589Z,98690.75
2023-04-26T20:21:06.524Z,98696.75
2023-04-26T20:23:33.566Z,98704.66
2023-04-26T20:26:00.500Z,98707.47
2023-04-26T20:28:27.557Z,98701.69
2023-04-26T20:30:54.400Z,98707.22
2023-04-26T20:33:21.517Z,98701.44
2023-04-26T20:35:48.594Z,98714.53
2023-04-26T20:38:15.642Z,98695.94
2023-04-26T20:40:42.605Z,98691.75
2023-04-26T20:43:09.802Z,98701.09
2023-04-26T20:45:37.190Z,98707.41
2023-04-26T20:48:04.474Z,98707.22
2023-04-26T20:50:31.609Z,98705.94
2023-04-26T20:52:58.554Z,98695.31
2023-04-26T20:55:25.417Z,98705.00
2023-04-26T20:57:52.486Z,98713.53
2023-04-26T21:00:19.656Z,98718.91
2023-04-26T21:02:46.529Z,98721.66
2023-04-26T21:05:13.604Z,98720.84
2023-04-26T21:07:40.650Z,98731.66
2023-04-26T21:10:08.073Z,98719.84
2023-04-26T21:12:34.886Z,98734.06
2023-04-26T21:15:01.962Z,98733.44
2023-04-26T21:17:28.923Z,98734.09
2023-04-26T21:19:56.207Z,98746.69
2023-04-26T21:22:23.263Z,98750.28
2023-04-26T21:24:53.115Z,98742.38
2023-04-26T21:27:20.241Z,98761.28
2023-04-26T21:29:47.128Z,98750.94
2023-04-26T21:32:14.076Z,98761.63
2023-04-26T21:34:41.098Z,98764.59
2023-04-26T21:37:08.150Z,98764.44
2023-04-26T21:39:35.174Z,98775.59
2023-04-26T21:42:03.482Z,98755.38
2023-04-26T21:44:30.400Z,98779.47
2023-04-26T21:46:57.223Z,98769.13
2023-04-26T21:49:24.557Z,98780.56
2023-04-26T21:51:51.561Z,98787.34
2023-04-26T21:54:18.397Z,98781.38
2023-04-26T21:56:45.321Z,98779.44
2023-04-26T21:59:14.198Z,98776.06
2023-04-26T22:01:41.407Z,98779.09
2023-04-26T22:04:08.511Z,98791.38
2023-04-26T22:06:35.648Z,98783.94
2023-04-26T22:09:02.623Z,98796.41
2023-04-26T22:11:29.423Z,98808.22
2023-04-26T22:13:56.665Z,98804.19
2023-04-26T22:16:23.484Z,98804.50
2023-04-26T22:18:50.308Z,98809.56
2023-04-26T22:21:17.255Z,98797.28
2023-04-26T22:23:44.231Z,98814.91
2023-04-26T22:26:11.174Z,98818.31
2023-04-26T22:28:38.169Z,98833.19
2023-04-26T22:31:05.103Z,98827.53
2023-04-26T22:33:31.893Z,98828.94
2023-04-26T22:35:59.667Z,98834.28
2023-04-26T22:38:27.004Z,98837.84
2023-04-26T22:40:54.272Z,98842.69
2023-04-26T22:43:23.090Z,98850.28
2023-04-26T22:45:49.941Z,98861.59
2023-04-26T22:48:17.001Z,98871.94
2023-04-26T22:50:43.928Z,98868.03
2023-04-26T22:53:11.078Z,98854.44
2023-04-26T22:55:37.818Z,98857.69
2023-04-26T22:58:04.724Z,98870.28
2023-04-26T23:00:31.766Z,98864.31
2023-04-26T23:02:58.678Z,98858.81
2023-04-26T23:05:25.636Z,98876.94
2023-04-26T23:07:52.723Z,98877.25
2023-04-26T23:10:19.752Z,98871.75
2023-04-26T23:12:46.680Z,98869.66
2023-04-26T23:15:13.638Z,98889.22
2023-04-26T23:17:41.912Z,98878.69
2023-04-26T23:20:12.457Z,98893.56
2023-04-26T23:22:43.313Z,98894.84
2023-04-26T23:25:11.046Z,98875.09
2023-04-26T23:27:38.487Z,98886.38
2023-04-26T23:30:06.547Z,98896.38
2023-04-26T23:32:33.455Z,98884.88
2023-04-26T23:35:00.525Z,98889.34
2023-04-26T23:37:27.496Z,98909.19
2023-04-26T23:39:54.399Z,98894.38
2023-04-26T23:42:21.220Z,98899.34
2023-04-26T23:44:48.171Z,98896.25
2023-04-26T23:47:15.054Z,98895.38
2023-04-26T23:49:42.078Z,98905.84
2023-04-26T23:52:08.921Z,98892.56
2023-04-26T23:54:35.965Z,98909.34
2023-04-26T23:57:04.150Z,98897.13
2023-04-26T23:59:31.156Z,98896.13
